Time;durP1;ratioP1;P1;durP2;ratioP2;P2;SDS_P1;SDS_P2;PMS_P1;PMS_P2;Temp;Humidity;BMP_temperature;BMP_pressure;BME280_temperature;BME280_humidity;BME280_pressure;Samples;Min_cycle;Max_cycle;Signal;HPM_P1;HPM_P2
2023/08/05 00:01:19;;;;;;;4.28;2.60;;;17.40;99.90;;;;;;4979347;28;20093;-65
2023/08/05 00:03:45;;;;;;;5.38;3.00;;;17.30;99.90;;;;;;4980107;28;20093;-65
2023/08/05 00:06:10;;;;;;;4.00;2.47;;;17.30;99.90;;;;;;4979579;28;20022;-65
2023/08/05 00:08:36;;;;;;;3.20;2.70;;;17.20;99.90;;;;;;4979753;28;20034;-65
2023/08/05 00:11:02;;;;;;;3.28;2.72;;;17.10;99.90;;;;;;4979347;28;20035;-65
2023/08/05 00:13:30;;;;;;;7.43;2.78;;;17.00;99.90;;;;;;4979570;28;20058;-65
2023/08/05 00:15:55;;;;;;;5.32;2.72;;;17.00;99.90;;;;;;4979249;28;20105;-65
2023/08/05 00:18:21;;;;;;;4.47;3.10;;;17.00;99.90;;;;;;4978793;28;20027;-65
2023/08/05 00:20:49;;;;;;;5.20;2.60;;;17.00;99.90;;;;;;4979842;28;20031;-65
2023/08/05 00:23:14;;;;;;;5.65;2.58;;;17.00;99.90;;;;;;4979507;28;20095;-65
2023/08/05 00:25:40;;;;;;;3.47;2.40;;;17.00;99.90;;;;;;4979489;28;20105;-65
2023/08/05 00:28:05;;;;;;;5.82;2.70;;;17.00;99.90;;;;;;4979665;28;20090;-65
2023/08/05 00:30:31;;;;;;;3.92;2.65;;;17.10;99.90;;;;;;4979892;28;20023;-65
2023/08/05 00:32:56;;;;;;;4.18;2.30;;;17.10;99.90;;;;;;4979251;28;20081;-65
2023/08/05 00:35:23;;;;;;;2.53;2.10;;;17.10;99.90;;;;;;4978851;28;20034;-65
2023/08/05 00:37:48;;;;;;;3.10;2.45;;;17.00;99.90;;;;;;4980064;28;20106;-65
2023/08/05 00:40:14;;;;;;;2.97;2.45;;;17.00;99.90;;;;;;4979367;28;20047;-65
2023/08/05 00:42:39;;;;;;;5.03;2.40;;;17.00;99.90;;;;;;4978931;28;20030;-65
2023/08/05 00:45:05;;;;;;;6.95;2.78;;;16.90;99.90;;;;;;4980027;28;20042;-65
2023/08/05 00:47:30;;;;;;;6.45;3.53;;;16.90;99.90;;;;;;4978720;28;20026;-65
2023/08/05 00:49:58;;;;;;;3.83;2.80;;;16.90;99.90;;;;;;4979908;28;20077;-65
2023/08/05 00:52:25;;;;;;;4.05;2.72;;;16.90;99.90;;;;;;4979259;28;20023;-65
2023/08/05 00:54:51;;;;;;;5.68;2.90;;;16.90;99.90;;;;;;4978523;28;20023;-65
2023/08/05 00:57:19;;;;;;;5.93;2.70;;;16.80;99.90;;;;;;4978800;28;20034;-65
2023/08/05 00:59:45;;;;;;;5.63;3.40;;;16.70;99.90;;;;;;4974532;28;20051;-65
2023/08/05 01:02:10;;;;;;;5.38;2.92;;;16.70;99.90;;;;;;4959260;28;20027;-65
2023/08/05 01:04:36;;;;;;;6.88;2.67;;;16.70;99.90;;;;;;4959454;28;20023;-65
2023/08/05 01:07:03;;;;;;;5.60;2.80;;;16.80;99.90;;;;;;4959432;28;20023;-65
2023/08/05 01:09:29;;;;;;;3.40;2.80;;;16.90;99.90;;;;;;4959507;28;20023;-65
2023/08/05 01:11:54;;;;;;;7.03;3.17;;;16.90;99.90;;;;;;4958939;28;20043;-65
2023/08/05 01:14:20;;;;;;;4.80;2.90;;;17.10;99.90;;;;;;4959611;28;20039;-66
2023/08/05 01:16:45;;;;;;;7.80;3.13;;;17.00;99.90;;;;;;4972772;28;20037;-65
2023/08/05 01:19:21;;;;;;;6.22;3.03;;;16.80;99.90;;;;;;4978477;28;20054;-65
2023/08/05 01:21:50;;;;;;;5.68;3.03;;;16.70;99.90;;;;;;4978203;28;20042;-66
2023/08/05 01:24:26;;;;;;;4.93;2.50;;;16.60;99.90;;;;;;4978875;28;20027;-65
2023/08/05 01:26:53;;;;;;;6.60;2.70;;;16.50;99.90;;;;;;4978240;28;20018;-65
2023/08/05 01:29:18;;;;;;;3.88;3.03;;;16.50;99.90;;;;;;4978762;28;20031;-65
2023/08/05 01:31:45;;;;;;;5.28;3.03;;;16.40;99.90;;;;;;4978304;28;20082;-65
2023/08/05 01:34:11;;;;;;;4.75;2.88;;;16.40;99.90;;;;;;4994454;28;20046;-65
2023/08/05 01:36:37;;;;;;;7.30;3.58;;;16.30;99.90;;;;;;4997797;28;20049;-65
2023/08/05 01:39:03;;;;;;;6.07;2.95;;;16.20;99.90;;;;;;4998518;28;20015;-65
2023/08/05 01:41:28;;;;;;;3.60;3.15;;;16.10;99.90;;;;;;4998174;28;20022;-65
2023/08/05 01:43:54;;;;;;;2.97;2.67;;;16.00;99.90;;;;;;4998078;28;20022;-65
2023/08/05 01:46:19;;;;;;;4.47;3.13;;;16.00;99.90;;;;;;4997224;28;20030;-65
2023/08/05 01:48:45;;;;;;;6.38;3.20;;;16.00;99.90;;;;;;4997516;28;20057;-65
2023/08/05 01:51:10;;;;;;;5.40;3.78;;;16.10;99.90;;;;;;4994015;28;20134;-65
2023/08/05 01:53:36;;;;;;;7.30;3.35;;;16.10;99.90;;;;;;4977573;28;20027;-65
2023/08/05 01:56:01;;;;;;;4.70;3.33;;;16.20;99.90;;;;;;4977591;28;20074;-65
2023/08/05 01:58:27;;;;;;;10.93;4.78;;;16.10;99.90;;;;;;4977438;28;20118;-66
2023/08/05 02:04:04;;;;;;;5.03;3.40;;;16.00;99.90;;;;;;4978650;28;20034;-65
2023/08/05 02:06:29;;;;;;;5.22;2.97;;;15.90;99.90;;;;;;4978272;28;20031;-65
2023/08/05 02:08:55;;;;;;;5.70;3.75;;;15.90;99.90;;;;;;4976973;28;20034;-65
2023/08/05 02:11:20;;;;;;;6.80;3.35;;;15.80;99.90;;;;;;4977448;28;20037;-65
2023/08/05 02:13:46;;;;;;;4.93;3.28;;;15.70;99.90;;;;;;4977885;28;20030;-65
2023/08/05 02:16:11;;;;;;;4.15;3.33;;;15.60;99.90;;;;;;4978492;28;20027;-65
2023/08/05 02:18:37;;;;;;;5.50;3.03;;;15.60;99.90;;;;;;4978407;28;20018;-65
2023/08/05 02:21:02;;;;;;;6.75;3.00;;;15.60;99.90;;;;;;4978235;28;20031;-65
2023/08/05 02:23:28;;;;;;;6.97;3.85;;;15.60;99.90;;;;;;4978365;28;20034;-65
2023/08/05 02:25:53;;;;;;;4.07;3.35;;;15.60;99.90;;;;;;4976683;28;20122;-65
2023/08/05 02:28:19;;;;;;;9.43;3.40;;;15.60;99.90;;;;;;4977095;28;20046;-65
2023/08/05 02:30:44;;;;;;;9.18;3.33;;;15.60;99.90;;;;;;4977348;28;20054;-65
2023/08/05 02:33:10;;;;;;;5.75;2.70;;;15.50;99.90;;;;;;4977081;28;20027;-65
2023/08/05 02:35:35;;;;;;;6.53;3.40;;;15.30;99.90;;;;;;4978047;28;20054;-65
2023/08/05 02:38:01;;;;;;;4.50;3.30;;;15.10;99.90;;;;;;4978132;28;20114;-65
2023/08/05 02:40:26;;;;;;;6.05;3.38;;;15.10;99.90;;;;;;4978033;28;20022;-65
2023/08/05 02:42:52;;;;;;;5.18;2.85;;;15.10;99.90;;;;;;4977073;28;20018;-65
2023/08/05 02:45:17;;;;;;;7.70;2.95;;;15.20;99.90;;;;;;4968993;28;20031;-65
2023/08/05 02:47:43;;;;;;;5.90;3.20;;;15.20;99.90;;;;;;4958762;29;20031;-65
2023/08/05 02:50:09;;;;;;;4.43;3.35;;;15.30;99.90;;;;;;4957729;29;20027;-65
2023/08/05 02:52:35;;;;;;;6.53;3.03;;;15.30;99.90;;;;;;4958670;28;20024;-65
2023/08/05 02:55:01;;;;;;;10.38;3.08;;;15.30;99.90;;;;;;4957923;29;20023;-65
2023/08/05 02:57:26;;;;;;;4.20;3.03;;;15.30;99.90;;;;;;4957766;29;20094;-65
2023/08/05 02:59:52;;;;;;;3.35;2.92;;;15.30;99.90;;;;;;4959111;28;20023;-65
2023/08/05 03:02:17;;;;;;;4.20;2.70;;;15.40;99.90;;;;;;4959993;28;20063;-65
2023/08/05 03:04:43;;;;;;;4.55;3.40;;;15.40;99.90;;;;;;4978036;28;20030;-65
2023/08/05 03:07:08;;;;;;;5.65;3.10;;;15.40;99.90;;;;;;4980557;28;20027;-65
2023/08/05 03:09:34;;;;;;;4.28;3.10;;;15.30;99.90;;;;;;4980624;28;20030;-65
2023/08/05 03:11:59;;;;;;;5.18;3.25;;;15.20;99.90;;;;;;4981259;28;20023;-66
2023/08/05 03:14:25;;;;;;;6.20;3.30;;;15.20;99.90;;;;;;4980526;28;20027;-65
2023/08/05 03:16:50;;;;;;;6.72;3.30;;;15.20;99.90;;;;;;4980554;28;20077;-65
2023/08/05 03:19:21;;;;;;;7.53;3.50;;;15.20;99.90;;;;;;4979807;28;20023;-65
2023/08/05 03:21:46;;;;;;;7.05;3.30;;;15.20;99.90;;;;;;4961971;28;20031;-65
2023/08/05 03:24:12;;;;;;;7.68;3.60;;;15.20;99.90;;;;;;4977175;28;20102;-65
2023/08/05 03:26:37;;;;;;;4.07;3.28;;;15.10;99.90;;;;;;4961049;28;20020;-65
2023/08/05 03:29:03;;;;;;;6.07;3.33;;;15.10;99.90;;;;;;4961058;29;20031;-65
2023/08/05 03:31:30;;;;;;;6.38;2.90;;;15.10;99.90;;;;;;4976907;28;20112;-65
2023/08/05 03:33:56;;;;;;;4.60;3.08;;;15.20;99.90;;;;;;4977373;28;20070;-65
2023/08/05 03:36:21;;;;;;;6.57;3.20;;;15.10;99.90;;;;;;4961174;28;20105;-65
2023/08/05 03:38:47;;;;;;;6.82;3.45;;;15.20;99.90;;;;;;4961410;29;20038;-65
2023/08/05 03:41:12;;;;;;;6.10;3.38;;;15.20;99.90;;;;;;4962051;28;20094;-65
2023/08/05 03:43:38;;;;;;;4.28;2.85;;;15.30;99.90;;;;;;4961053;29;20032;-65
2023/08/05 03:46:03;;;;;;;4.40;3.13;;;15.30;99.90;;;;;;4961548;28;20034;-65
2023/08/05 03:48:29;;;;;;;7.10;3.08;;;15.20;99.90;;;;;;4960470;29;20027;-65
2023/08/05 03:50:54;;;;;;;5.20;2.92;;;15.20;99.90;;;;;;4960454;29;20027;-65
2023/08/05 03:53:21;;;;;;;3.65;2.90;;;15.20;99.90;;;;;;4974968;28;20114;-65
2023/08/05 03:55:46;;;;;;;5.93;3.08;;;15.20;99.90;;;;;;4979749;28;20023;-65
2023/08/05 03:58:12;;;;;;;7.28;3.40;;;15.20;99.90;;;;;;4979963;28;20062;-65
2023/08/05 04:00:47;;;;;;;4.93;3.47;;;15.20;99.90;;;;;;4979967;28;20027;-65
2023/08/05 04:03:12;;;;;;;4.32;3.17;;;15.10;99.90;;;;;;4980223;28;20031;-65
2023/08/05 04:05:38;;;;;;;10.52;2.90;;;15.10;99.90;;;;;;4979822;28;20035;-65
2023/08/05 04:08:03;;;;;;;7.00;3.05;;;15.10;99.90;;;;;;4980423;28;20030;-65
2023/08/05 04:10:30;;;;;;;3.47;2.65;;;15.10;99.90;;;;;;4978921;28;20027;-65
2023/08/05 04:12:57;;;;;;;7.65;3.25;;;15.10;99.90;;;;;;4980777;28;20080;-65
2023/08/05 04:15:23;;;;;;;7.30;2.72;;;15.10;99.90;;;;;;4979281;28;20031;-65
2023/08/05 04:17:50;;;;;;;5.38;2.92;;;15.10;99.90;;;;;;4979721;28;20026;-65
2023/08/05 04:20:17;;;;;;;5.55;2.75;;;15.20;99.90;;;;;;4980191;28;20027;-65
2023/08/05 04:22:46;;;;;;;6.85;3.13;;;15.30;99.90;;;;;;4979582;28;20077;-65
2023/08/05 04:25:12;;;;;;;6.35;2.85;;;15.50;99.90;;;;;;4979123;28;20034;-65
2023/08/05 04:27:37;;;;;;;6.18;2.67;;;15.70;99.90;;;;;;4975432;28;20035;-65
2023/08/05 04:30:06;;;;;;;4.75;2.78;;;15.60;99.90;;;;;;4959819;28;20038;-65
2023/08/05 04:32:31;;;;;;;3.72;2.75;;;15.40;99.90;;;;;;4960641;28;20060;-65
2023/08/05 04:34:57;;;;;;;8.38;2.80;;;15.30;99.90;;;;;;4975786;28;20032;-65
2023/08/05 04:37:22;;;;;;;8.10;3.28;;;15.20;99.90;;;;;;4976605;28;20019;-65
2023/08/05 04:39:48;;;;;;;3.92;2.50;;;15.20;99.90;;;;;;4959758;28;20074;-65
2023/08/05 04:42:14;;;;;;;8.40;3.15;;;15.10;99.90;;;;;;4976055;28;20027;-65
2023/08/05 04:44:40;;;;;;;5.60;3.00;;;15.10;99.90;;;;;;4978856;28;20031;-65
2023/08/05 04:47:10;;;;;;;6.47;2.90;;;15.10;99.90;;;;;;4980082;28;20038;-65
2023/08/05 04:49:38;;;;;;;4.80;2.67;;;15.10;99.90;;;;;;4979928;28;20023;-65
2023/08/05 04:52:06;;;;;;;4.03;3.10;;;15.10;99.90;;;;;;4979281;28;20058;-65
2023/08/05 04:54:43;;;;;;;9.43;2.58;;;15.10;99.90;;;;;;4978772;28;20031;-65
2023/08/05 04:57:09;;;;;;;5.07;3.08;;;15.20;99.90;;;;;;4979695;28;20019;-65
2023/08/05 04:59:35;;;;;;;6.65;3.00;;;15.10;99.90;;;;;;4976439;28;20054;-65
2023/08/05 05:02:01;;;;;;;5.00;2.97;;;15.10;99.90;;;;;;4979530;28;20042;-65
2023/08/05 05:04:26;;;;;;;8.27;3.70;;;15.10;99.90;;;;;;4978799;28;20058;-66
2023/08/05 05:06:52;;;;;;;7.03;3.50;;;15.20;99.90;;;;;;4979492;28;20023;-65
2023/08/05 05:09:17;;;;;;;6.82;3.30;;;15.30;99.90;;;;;;4979610;28;20034;-65
2023/08/05 05:11:43;;;;;;;6.55;4.03;;;15.30;99.90;;;;;;4979193;28;20025;-65
2023/08/05 05:14:09;;;;;;;5.22;3.70;;;15.40;99.90;;;;;;4978390;28;20046;-65
2023/08/05 05:16:34;;;;;;;7.13;3.90;;;15.50;99.90;;;;;;4976720;28;20030;-65
2023/08/05 05:19:00;;;;;;;8.43;4.75;;;15.60;99.90;;;;;;4959790;28;20104;-65
2023/08/05 05:21:25;;;;;;;6.95;4.05;;;15.50;99.90;;;;;;4959775;29;20031;-66
2023/08/05 05:23:51;;;;;;;5.47;3.25;;;15.60;99.90;;;;;;4960089;29;20034;-66
2023/08/05 05:26:16;;;;;;;7.72;4.03;;;15.70;99.90;;;;;;4975671;28;20097;-66
2023/08/05 05:28:42;;;;;;;6.07;3.70;;;15.60;99.90;;;;;;4959477;28;20061;-66
2023/08/05 05:31:07;;;;;;;10.43;4.15;;;15.60;99.90;;;;;;4974637;28;20114;-66
2023/08/05 05:33:33;;;;;;;5.57;3.67;;;15.60;99.90;;;;;;4974804;28;20118;-66
2023/08/05 05:35:59;;;;;;;8.68;4.15;;;15.70;99.90;;;;;;4970216;28;20030;-66
2023/08/05 05:38:24;;;;;;;10.30;4.65;;;15.90;99.90;;;;;;4959436;28;20023;-66
2023/08/05 05:40:53;;;;;;;4.85;3.58;;;16.00;99.90;;;;;;4959365;28;20122;-66
2023/08/05 05:43:18;;;;;;;9.73;3.75;;;15.90;99.90;;;;;;4959445;28;20016;-66
2023/08/05 05:45:46;;;;;;;5.82;3.53;;;16.10;99.90;;;;;;4958848;29;20043;-66
2023/08/05 05:48:12;;;;;;;5.63;3.80;;;16.00;99.90;;;;;;4958327;29;20023;-66
2023/08/05 05:50:43;;;;;;;7.35;3.80;;;16.00;99.90;;;;;;4959474;28;20031;-66
2023/08/05 05:53:13;;;;;;;7.47;3.70;;;16.10;99.90;;;;;;4959251;28;20030;-66
2023/08/05 05:55:41;;;;;;;8.00;4.15;;;16.20;99.90;;;;;;4977549;28;20102;-66
2023/08/05 05:58:07;;;;;;;6.82;3.85;;;16.20;99.90;;;;;;4978830;28;20030;-66
2023/08/05 06:00:33;;;;;;;4.57;3.33;;;16.20;99.90;;;;;;4978693;28;20069;-66
2023/08/05 06:03:00;;;;;;;6.00;3.53;;;16.20;99.90;;;;;;4977432;28;20027;-66
2023/08/05 06:05:26;;;;;;;10.45;4.03;;;16.10;99.90;;;;;;4978644;28;20111;-66
2023/08/05 06:07:51;;;;;;;6.03;3.78;;;16.20;99.90;;;;;;4978338;28;20030;-66
2023/08/05 06:10:17;;;;;;;4.90;3.97;;;16.10;99.90;;;;;;4978242;28;20035;-66
2023/08/05 06:12:42;;;;;;;6.05;4.00;;;16.20;99.90;;;;;;4977268;28;20030;-66
2023/08/05 06:15:08;;;;;;;6.82;3.22;;;16.30;99.90;;;;;;4978018;28;20054;-66
2023/08/05 06:17:34;;;;;;;6.38;3.47;;;16.30;99.90;;;;;;4977353;28;20025;-66
2023/08/05 06:19:59;;;;;;;6.18;3.80;;;16.30;99.90;;;;;;4977200;28;20053;-66
2023/08/05 06:22:25;;;;;;;3.97;2.90;;;16.40;99.90;;;;;;4977334;28;20031;-66
2023/08/05 06:24:51;;;;;;;6.93;3.33;;;16.50;99.90;;;;;;4978202;28;20027;-66
2023/08/05 06:27:17;;;;;;;7.18;3.72;;;16.40;99.90;;;;;;4978295;28;20051;-66
2023/08/05 06:29:42;;;;;;;7.40;3.92;;;16.40;99.90;;;;;;4977428;28;20034;-66
2023/08/05 06:32:08;;;;;;;8.73;3.75;;;16.50;99.90;;;;;;4977147;28;20026;-66
2023/08/05 06:34:33;;;;;;;4.78;2.97;;;16.70;99.90;;;;;;4977351;28;20051;-66
2023/08/05 06:36:59;;;;;;;6.75;3.17;;;16.70;99.90;;;;;;4977574;28;20109;-66
2023/08/05 06:39:25;;;;;;;7.78;3.60;;;16.80;99.90;;;;;;4978371;28;20019;-66
2023/08/05 06:41:50;;;;;;;5.15;3.33;;;16.80;99.90;;;;;;4981500;28;20022;-66
2023/08/05 06:44:16;;;;;;;4.70;3.25;;;16.90;99.90;;;;;;4981435;28;20027;-66
2023/08/05 06:46:41;;;;;;;5.82;3.28;;;16.80;99.90;;;;;;4980920;28;20027;-66
2023/08/05 06:49:09;;;;;;;5.07;2.72;;;16.80;99.90;;;;;;4981076;28;20077;-66
2023/08/05 06:51:34;;;;;;;3.47;3.17;;;16.90;99.90;;;;;;4981031;28;20023;-66
2023/08/05 06:54:00;;;;;;;6.57;2.72;;;17.00;99.90;;;;;;4981874;28;20034;-66
2023/08/05 06:56:25;;;;;;;4.28;3.00;;;17.00;99.90;;;;;;4981996;28;20023;-66
2023/08/05 06:58:51;;;;;;;3.88;2.75;;;17.00;99.90;;;;;;4980797;28;20022;-66
2023/08/05 07:01:16;;;;;;;4.35;2.80;;;17.20;99.90;;;;;;4981881;28;20074;-66
2023/08/05 07:03:44;;;;;;;6.60;3.15;;;17.20;99.90;;;;;;4980197;28;20118;-66
2023/08/05 07:06:09;;;;;;;5.25;3.42;;;17.20;99.90;;;;;;4981518;28;20102;-66
2023/08/05 07:08:35;;;;;;;4.90;3.47;;;17.00;99.90;;;;;;4980861;28;20054;-66
2023/08/05 07:11:00;;;;;;;9.48;3.78;;;17.10;99.90;;;;;;4981536;28;20026;-66
2023/08/05 07:13:26;;;;;;;7.88;3.53;;;17.30;99.90;;;;;;4981602;28;20031;-66
2023/08/05 07:16:02;;;;;;;4.45;2.92;;;17.40;99.90;;;;;;4981027;28;20027;-66
2023/08/05 07:18:28;;;;;;;9.48;3.78;;;17.50;99.90;;;;;;4977355;28;20031;-66
2023/08/05 07:20:54;;;;;;;5.35;3.33;;;17.40;99.90;;;;;;4961384;28;20032;-66
2023/08/05 07:23:20;;;;;;;7.18;3.72;;;17.50;99.90;;;;;;4961139;28;20027;-66
2023/08/05 07:25:46;;;;;;;7.10;3.42;;;17.50;99.90;;;;;;4961159;28;20099;-66
2023/08/05 07:28:12;;;;;;;6.82;3.63;;;17.50;99.90;;;;;;4962150;28;20024;-66
2023/08/05 07:30:37;;;;;;;3.65;2.72;;;17.60;99.90;;;;;;4960903;28;20054;-66
2023/08/05 07:33:09;;;;;;;7.82;3.95;;;17.70;99.90;;;;;;4961857;28;20106;-66
2023/08/05 07:35:35;;;;;;;7.68;3.65;;;17.70;99.90;;;;;;4961728;28;20019;-66
2023/08/05 07:38:09;;;;;;;6.50;3.40;;;17.50;99.90;;;;;;4977124;28;20037;-65
2023/08/05 07:40:37;;;;;;;5.22;2.80;;;17.50;99.90;;;;;;4981437;28;20057;-66
2023/08/05 07:43:04;;;;;;;4.65;3.10;;;17.60;99.90;;;;;;4980871;28;20103;-66
2023/08/05 07:45:29;;;;;;;5.88;2.95;;;17.70;99.90;;;;;;4980892;28;20042;-66
2023/08/05 07:47:56;;;;;;;4.65;2.70;;;17.70;99.90;;;;;;4980942;28;20038;-66
2023/08/05 07:50:22;;;;;;;5.03;3.05;;;17.80;99.90;;;;;;4979918;28;20023;-66
2023/08/05 07:52:50;;;;;;;7.75;3.67;;;18.10;99.90;;;;;;4980635;28;20025;-66
2023/08/05 07:55:18;;;;;;;7.93;3.85;;;18.40;99.90;;;;;;4980064;28;20054;-66
2023/08/05 07:57:46;;;;;;;4.10;2.97;;;18.40;99.90;;;;;;4980108;28;20093;-66
2023/08/05 08:00:13;;;;;;;3.20;2.85;;;18.40;99.90;;;;;;4978855;28;20086;-66
2023/08/05 08:02:42;;;;;;;5.95;3.33;;;18.40;99.90;;;;;;4977659;28;20023;-66
2023/08/05 08:05:08;;;;;;;5.82;3.15;;;18.20;99.90;;;;;;4980383;28;20023;-66
2023/08/05 08:07:46;;;;;;;4.90;3.08;;;18.30;99.90;;;;;;4979767;28;20030;-67
2023/08/05 08:10:15;;;;;;;9.20;2.95;;;18.30;99.90;;;;;;4979681;28;20042;-67
2023/08/05 08:12:41;;;;;;;6.50;3.90;;;18.50;99.90;;;;;;4967259;28;20058;-66
2023/08/05 08:15:07;;;;;;;3.10;2.67;;;18.60;99.90;;;;;;4960045;29;20047;-65
2023/08/05 08:17:33;;;;;;;9.10;3.85;;;18.50;99.90;;;;;;4977031;28;20030;-65
2023/08/05 08:19:58;;;;;;;5.50;3.30;;;18.40;99.90;;;;;;4961219;28;20114;-65
2023/08/05 08:22:24;;;;;;;5.88;3.15;;;18.40;99.90;;;;;;4975861;28;20082;-66
2023/08/05 08:24:49;;;;;;;4.65;3.42;;;18.50;99.90;;;;;;4960103;28;20066;-66
2023/08/05 08:27:15;;;;;;;3.90;3.00;;;18.50;99.90;;;;;;4977071;28;20106;-66
2023/08/05 08:29:40;;;;;;;3.70;3.03;;;18.60;99.90;;;;;;4979313;28;20113;-65
2023/08/05 08:32:06;;;;;;;5.53;3.15;;;19.10;99.90;;;;;;4989247;28;20073;-65
2023/08/05 08:34:32;;;;;;;5.75;2.58;;;19.30;99.90;;;;;;4998878;28;20026;-65
2023/08/05 08:36:57;;;;;;;4.90;3.22;;;19.50;99.90;;;;;;4998522;28;20037;-65
2023/08/05 08:39:23;;;;;;;5.65;3.40;;;19.50;99.90;;;;;;4998551;28;20027;-66
2023/08/05 08:41:50;;;;;;;6.43;2.95;;;19.30;99.90;;;;;;4998756;28;20037;-65
2023/08/05 08:44:16;;;;;;;4.25;3.00;;;19.20;99.90;;;;;;4987434;28;20086;-65
2023/08/05 08:46:44;;;;;;;4.43;2.50;;;19.30;99.90;;;;;;4979179;28;20027;-65
2023/08/05 08:49:11;;;;;;;5.20;2.35;;;19.50;99.90;;;;;;4978881;28;20038;-65
2023/08/05 08:51:37;;;;;;;2.67;2.10;;;19.50;99.90;;;;;;4978528;28;20073;-65
2023/08/05 08:54:03;;;;;;;4.20;2.20;;;19.60;99.90;;;;;;4978744;28;20031;-66
2023/08/05 08:56:30;;;;;;;3.97;2.10;;;19.70;99.90;;;;;;4979449;28;20031;-65
2023/08/05 08:58:56;;;;;;;4.75;2.05;;;19.70;99.90;;;;;;4978442;28;20019;-65
2023/08/05 09:01:22;;;;;;;3.20;2.28;;;19.70;99.90;;;;;;4978615;28;20034;-65
2023/08/05 09:03:51;;;;;;;6.05;2.08;;;19.80;99.90;;;;;;4978350;28;20035;-65
2023/08/05 09:06:21;;;;;;;2.35;1.50;;;19.90;99.90;;;;;;4978556;28;20099;-65
2023/08/05 09:08:50;;;;;;;4.88;1.88;;;19.80;99.90;;;;;;4978367;28;20063;-65
2023/08/05 09:11:16;;;;;;;5.43;2.05;;;19.80;99.90;;;;;;4979064;28;20031;-66
2023/08/05 09:13:42;;;;;;;5.28;2.00;;;19.90;99.90;;;;;;4973916;28;20051;-65
2023/08/05 09:16:13;;;;;;;4.70;1.52;;;19.90;99.90;;;;;;4958864;28;20031;-65
2023/08/05 09:18:44;;;;;;;4.03;1.75;;;19.80;99.90;;;;;;4960005;28;20024;-66
2023/08/05 09:21:10;;;;;;;;;;;19.80;99.90;;;;;;4960385;28;20066;-66
2023/08/05 09:23:46;;;;;;;5.82;1.80;;;19.80;99.90;;;;;;4959010;28;19907;-66
2023/08/05 09:26:13;;;;;;;2.72;2.00;;;19.90;99.90;;;;;;4958902;29;20067;-66
2023/08/05 09:28:39;;;;;;;3.70;2.13;;;20.00;99.90;;;;;;4958750;29;20027;-66
2023/08/05 09:31:12;;;;;;;8.05;2.05;;;20.20;99.90;;;;;;4966624;28;20041;-66
2023/08/05 09:33:39;;;;;;;2.97;1.80;;;20.30;99.90;;;;;;4959559;29;20054;-66
2023/08/05 09:36:12;;;;;;;1.73;1.50;;;20.30;99.90;;;;;;4959569;29;20027;-66
2023/08/05 09:38:39;;;;;;;2.42;1.55;;;20.20;99.90;;;;;;4959526;28;20046;-66
2023/08/05 09:41:06;;;;;;;3.50;1.65;;;20.20;99.90;;;;;;4959462;28;20019;-66
2023/08/05 09:43:34;;;;;;;5.05;1.90;;;20.20;99.90;;;;;;4959485;28;20103;-66
2023/08/05 09:46:06;;;;;;;4.15;2.00;;;20.40;99.90;;;;;;4958720;29;20030;-66
2023/08/05 09:48:42;;;;;;;3.15;1.88;;;20.70;99.90;;;;;;4967981;28;20125;-66
2023/08/05 09:51:08;;;;;;;5.93;2.08;;;20.70;99.90;;;;;;4978857;28;20070;-66
2023/08/05 09:53:37;;;;;;;2.53;1.80;;;20.80;99.90;;;;;;4977819;28;20101;-66
2023/08/05 09:56:06;;;;;;;3.95;2.35;;;21.00;99.90;;;;;;4978605;28;20062;-66
2023/08/05 09:58:37;;;;;;;3.28;2.03;;;21.30;99.90;;;;;;4977794;28;20026;-66
2023/08/05 10:01:07;;;;;;;5.65;2.15;;;21.40;99.90;;;;;;4978761;28;20038;-66
2023/08/05 10:03:39;;;;;;;3.70;1.98;;;21.40;99.90;;;;;;4977696;28;20113;-66
2023/08/05 10:06:07;;;;;;;3.28;1.80;;;21.50;99.90;;;;;;4977370;28;20111;-66
2023/08/05 10:08:35;;;;;;;3.40;1.75;;;21.80;99.90;;;;;;4978621;28;20073;-66
2023/08/05 10:11:01;;;;;;;4.95;2.08;;;22.10;99.90;;;;;;4977510;28;20026;-66
2023/08/05 10:13:28;;;;;;;4.93;2.10;;;22.10;99.90;;;;;;4977423;28;20085;-66
2023/08/05 10:15:55;;;;;;;3.42;2.05;;;22.10;99.90;;;;;;4976790;28;20034;-66
2023/08/05 10:18:21;;;;;;;5.13;1.80;;;22.10;99.90;;;;;;4978260;28;20022;-66
2023/08/05 10:20:51;;;;;;;3.25;1.90;;;22.40;99.90;;;;;;4972458;28;20027;-66
2023/08/05 10:23:16;;;;;;;3.70;1.85;;;22.10;99.90;;;;;;4958862;28;20038;-66
2023/08/05 10:25:44;;;;;;;3.65;1.95;;;21.90;99.90;;;;;;4959061;28;20031;-66
2023/08/05 10:28:23;;;;;;;3.60;2.00;;;22.10;99.90;;;;;;4958845;29;20051;-66
2023/08/05 10:30:48;;;;;;;3.30;1.90;;;22.30;99.90;;;;;;4974477;28;20038;-66
2023/08/05 10:33:15;;;;;;;2.28;2.03;;;22.70;99.90;;;;;;4957925;28;20035;-66
2023/08/05 10:35:44;;;;;;;2.45;2.00;;;22.70;99.90;;;;;;4957769;29;20031;-66
2023/08/05 10:38:21;;;;;;;3.13;1.77;;;22.30;99.90;;;;;;4957975;29;20023;-66
2023/08/05 10:41:00;;;;;;;3.55;2.53;;;22.20;99.90;;;;;;4957885;29;20035;-66
2023/08/05 10:43:30;;;;;;;3.88;2.10;;;22.10;99.90;;;;;;4958647;28;20023;-66
2023/08/05 10:46:00;;;;;;;3.00;2.05;;;22.00;99.90;;;;;;4957710;29;20024;-66
2023/08/05 10:48:43;;;;;;;6.53;2.08;;;22.30;99.90;;;;;;4958617;28;20093;-66
2023/08/05 10:51:14;;;;;;;2.80;1.70;;;23.00;99.90;;;;;;4957761;29;20030;-66
2023/08/05 10:53:44;;;;;;;3.05;2.00;;;23.80;99.90;;;;;;4957744;29;20046;-67
2023/08/05 10:56:13;;;;;;;2.75;1.90;;;24.20;99.90;;;;;;4958647;28;20032;-67
2023/08/05 10:58:47;;;;;;;3.60;2.90;;;24.90;99.90;;;;;;4975132;28;20098;-67
2023/08/05 11:01:13;;;;;;;5.40;1.90;;;25.70;99.90;;;;;;4977717;28;20023;-67
2023/08/05 11:03:39;;;;;;;3.10;2.10;;;25.40;99.90;;;;;;4976861;28;20030;-66
2023/08/05 11:06:05;;;;;;;3.83;1.70;;;25.30;99.90;;;;;;4976904;28;20023;-66
2023/08/05 11:08:33;;;;;;;6.40;3.00;;;25.10;99.90;;;;;;4976937;28;20110;-66
2023/08/05 11:11:04;;;;;;;2.85;2.17;;;24.80;99.90;;;;;;4976766;28;20027;-66
2023/08/05 11:13:36;;;;;;;3.85;2.45;;;24.40;99.90;;;;;;4976132;28;20031;-66
2023/08/05 11:16:03;;;;;;;4.25;2.10;;;24.10;99.90;;;;;;4976468;28;20055;-66
2023/08/05 11:18:29;;;;;;;4.07;2.22;;;23.80;99.90;;;;;;4976759;28;20086;-66
2023/08/05 11:20:55;;;;;;;5.25;2.83;;;23.60;99.90;;;;;;4977313;28;20023;-66
2023/08/05 11:23:23;;;;;;;3.33;2.20;;;23.30;99.90;;;;;;5000871;23;20047;-67
2023/08/05 11:25:48;;;;;;;4.38;2.13;;;23.00;99.90;;;;;;4993458;28;20027;-67
2023/08/05 11:28:14;;;;;;;2.38;1.95;;;22.80;99.90;;;;;;4980355;28;20054;-67
2023/08/05 11:30:40;;;;;;;2.90;1.90;;;22.80;99.90;;;;;;4981313;28;20081;-67
2023/08/05 11:33:06;;;;;;;1.80;1.67;;;22.80;99.90;;;;;;4965217;28;20027;-67
2023/08/05 11:35:32;;;;;;;2.83;1.92;;;22.90;99.90;;;;;;4961140;29;20074;-67
2023/08/05 11:37:57;;;;;;;2.72;1.67;;;23.40;99.90;;;;;;4960894;29;20059;-67
2023/08/05 11:40:27;;;;;;;2.50;1.75;;;24.40;99.90;;;;;;4960759;29;20019;-67
2023/08/05 11:42:52;;;;;;;4.57;1.90;;;25.70;99.90;;;;;;4960659;28;20054;-67
2023/08/05 11:45:18;;;;;;;5.60;2.40;;;26.50;99.90;;;;;;4960744;29;20118;-67
2023/08/05 11:47:45;;;;;;;4.20;1.98;;;26.80;99.90;;;;;;4961854;28;20118;-67
2023/08/05 11:50:12;;;;;;;3.38;1.75;;;26.10;99.90;;;;;;4979066;28;20186;-67
2023/08/05 11:52:39;;;;;;;4.10;2.00;;;26.00;99.90;;;;;;4980599;28;20077;-67
2023/08/05 11:55:06;;;;;;;2.85;2.05;;;25.10;99.90;;;;;;4979704;28;20041;-67
2023/08/05 11:57:32;;;;;;;2.38;1.65;;;24.10;99.90;;;;;;4979907;28;20033;-67
2023/08/05 12:00:08;;;;;;;5.05;2.70;;;23.70;99.90;;;;;;4979567;28;20027;-67
2023/08/05 12:02:36;;;;;;;4.00;2.00;;;23.80;99.90;;;;;;4979611;28;20030;-67
2023/08/05 12:05:04;;;;;;;3.38;1.60;;;23.90;99.90;;;;;;4979130;28;20033;-67
2023/08/05 12:07:29;;;;;;;1.88;1.40;;;23.90;99.90;;;;;;4980771;28;20054;-67
2023/08/05 12:10:04;;;;;;;1.67;1.58;;;24.60;99.90;;;;;;4979597;28;20058;-67
2023/08/05 12:12:30;;;;;;;3.95;1.60;;;26.00;99.90;;;;;;4980290;28;20073;-67
2023/08/05 12:15:12;;;;;;;2.22;1.70;;;27.50;99.90;;;;;;4980502;28;20027;-67
2023/08/05 12:17:38;;;;;;;4.40;1.90;;;27.90;99.90;;;;;;4980381;28;20027;-67
2023/08/05 12:20:09;;;;;;;1.70;1.60;;;27.30;99.90;;;;;;4979668;28;20023;-67
2023/08/05 12:22:35;;;;;;;1.80;1.70;;;27.20;99.90;;;;;;4978783;28;20030;-67
2023/08/05 12:25:00;;;;;;;3.50;2.10;;;25.70;99.90;;;;;;4979640;28;20038;-67
2023/08/05 12:27:26;;;;;;;1.60;1.50;;;25.10;99.90;;;;;;4979946;28;20034;-67
2023/08/05 12:29:51;;;;;;;4.60;1.95;;;24.60;99.90;;;;;;4979267;28;20029;-67
2023/08/05 12:32:17;;;;;;;2.05;1.50;;;24.30;99.90;;;;;;4979921;28;20027;-67
2023/08/05 12:34:42;;;;;;;2.45;1.85;;;24.60;99.90;;;;;;4979488;28;20049;-67
2023/08/05 12:37:08;;;;;;;3.92;2.15;;;24.40;99.90;;;;;;4978495;28;20026;-67
2023/08/05 12:39:33;;;;;;;3.60;2.33;;;24.50;99.90;;;;;;4976050;28;20110;-67
2023/08/05 12:41:59;;;;;;;3.10;2.38;;;24.30;99.90;;;;;;4979815;28;20033;-67
2023/08/05 12:44:25;;;;;;;3.15;2.47;;;24.00;99.90;;;;;;4978921;28;20057;-67
2023/08/05 12:46:50;;;;;;;4.60;2.40;;;23.50;99.90;;;;;;4979190;28;20031;-67
2023/08/05 12:49:16;;;;;;;2.80;2.30;;;23.20;99.90;;;;;;4980083;28;20041;-67